sensor_id;sensor_type;location;lat;lon;timestamp;temperature;humidity
57664;DHT22;43493;53.098;6.064;2023-06-24T00:02:13;18.60;99.90
57664;DHT22;43493;53.098;6.064;2023-06-24T00:04:39;18.60;99.90
57664;DHT22;43493;53.098;6.064;2023-06-24T00:07:05;18.60;99.90
57664;DHT22;43493;53.098;6.064;2023-06-24T00:09:32;18.50;99.90
57664;DHT22;43493;53.098;6.064;2023-06-24T00:11:58;18.40;99.90
57664;DHT22;43493;53.098;6.064;2023-06-24T00:14:27;18.40;99.90
57664;DHT22;43493;53.098;6.064;2023-06-24T00:16:54;18.40;99.90
57664;DHT22;43493;53.098;6.064;2023-06-24T00:19:21;18.30;99.90
57664;DHT22;43493;53.098;6.064;2023-06-24T00:21:49;18.20;99.90
57664;DHT22;43493;53.098;6.064;2023-06-24T00:24:17;18.20;99.90
57664;DHT22;43493;53.098;6.064;2023-06-24T00:26:43;18.20;99.90
57664;DHT22;43493;53.098;6.064;2023-06-24T00:29:09;18.30;99.90
57664;DHT22;43493;53.098;6.064;2023-06-24T00:31:34;18.20;99.90
57664;DHT22;43493;53.098;6.064;2023-06-24T00:34:00;18.20;99.90
57664;DHT22;43493;53.098;6.064;2023-06-24T00:36:26;18.20;99.90
57664;DHT22;43493;53.098;6.064;2023-06-24T00:38:52;18.20;99.90
57664;DHT22;43493;53.098;6.064;2023-06-24T00:41:18;18.20;99.90
57664;DHT22;43493;53.098;6.064;2023-06-24T00:43:44;18.20;99.90
57664;DHT22;43493;53.098;6.064;2023-06-24T00:46:10;18.10;99.90
57664;DHT22;43493;53.098;6.064;2023-06-24T00:48:36;18.20;99.90
57664;DHT22;43493;53.098;6.064;2023-06-24T00:51:02;18.20;99.90
57664;DHT22;43493;53.098;6.064;2023-06-24T00:53:28;18.20;99.90
57664;DHT22;43493;53.098;6.064;2023-06-24T00:55:55;18.20;99.90
57664;DHT22;43493;53.098;6.064;2023-06-24T00:58:31;18.10;99.90
57664;DHT22;43493;53.098;6.064;2023-06-24T01:00:57;18.00;99.90
57664;DHT22;43493;53.098;6.064;2023-06-24T01:03:26;18.00;99.90
57664;DHT22;43493;53.098;6.064;2023-06-24T01:05:54;18.00;99.90
57664;DHT22;43493;53.098;6.064;2023-06-24T01:08:20;18.00;99.90
57664;DHT22;43493;53.098;6.064;2023-06-24T01:10:49;18.00;99.90
57664;DHT22;43493;53.098;6.064;2023-06-24T01:13:15;18.00;99.90
57664;DHT22;43493;53.098;6.064;2023-06-24T01:15:41;18.00;99.90
57664;DHT22;43493;53.098;6.064;2023-06-24T01:18:10;17.90;99.90
57664;DHT22;43493;53.098;6.064;2023-06-24T01:21:14;17.90;99.90
57664;DHT22;43493;53.098;6.064;2023-06-24T01:23:50;17.80;99.90
57664;DHT22;43493;53.098;6.064;2023-06-24T01:26:58;17.80;99.90
57664;DHT22;43493;53.098;6.064;2023-06-24T01:32:48;17.80;99.90
57664;DHT22;43493;53.098;6.064;2023-06-24T01:35:19;17.70;99.90
57664;DHT22;43493;53.098;6.064;2023-06-24T01:37:48;17.70;99.90
57664;DHT22;43493;53.098;6.064;2023-06-24T01:40:26;17.70;99.90
57664;DHT22;43493;53.098;6.064;2023-06-24T01:42:52;17.60;99.90
57664;DHT22;43493;53.098;6.064;2023-06-24T01:45:25;17.60;99.90
57664;DHT22;43493;53.098;6.064;2023-06-24T01:48:01;17.60;99.90
57664;DHT22;43493;53.098;6.064;2023-06-24T01:50:30;17.60;99.90
57664;DHT22;43493;53.098;6.064;2023-06-24T01:52:57;17.60;99.90
57664;DHT22;43493;53.098;6.064;2023-06-24T01:55:24;17.60;99.90
57664;DHT22;43493;53.098;6.064;2023-06-24T01:57:50;17.60;99.90
57664;DHT22;43493;53.098;6.064;2023-06-24T02:00:17;17.50;99.90
57664;DHT22;43493;53.098;6.064;2023-06-24T02:02:45;17.40;99.90
57664;DHT22;43493;53.098;6.064;2023-06-24T02:05:11;17.30;99.90
57664;DHT22;43493;53.098;6.064;2023-06-24T02:07:39;17.30;99.90
57664;DHT22;43493;53.098;6.064;2023-06-24T02:10:07;17.30;99.90
57664;DHT22;43493;53.098;6.064;2023-06-24T02:12:33;17.30;99.90
57664;DHT22;43493;53.098;6.064;2023-06-24T02:15:01;17.30;99.90
57664;DHT22;43493;53.098;6.064;2023-06-24T02:17:27;17.40;99.90
57664;DHT22;43493;53.098;6.064;2023-06-24T02:19:55;17.30;99.90
57664;DHT22;43493;53.098;6.064;2023-06-24T02:22:22;17.40;99.90
57664;DHT22;43493;53.098;6.064;2023-06-24T02:24:49;17.40;99.90
57664;DHT22;43493;53.098;6.064;2023-06-24T02:27:16;17.40;99.90
57664;DHT22;43493;53.098;6.064;2023-06-24T02:29:43;17.30;99.90
57664;DHT22;43493;53.098;6.064;2023-06-24T02:32:09;17.30;99.90
57664;DHT22;43493;53.098;6.064;2023-06-24T02:34:35;17.30;99.90
57664;DHT22;43493;53.098;6.064;2023-06-24T02:37:01;17.30;99.90
57664;DHT22;43493;53.098;6.064;2023-06-24T02:39:27;17.30;99.90
57664;DHT22;43493;53.098;6.064;2023-06-24T02:41:53;17.20;99.90
57664;DHT22;43493;53.098;6.064;2023-06-24T02:44:19;17.20;99.90
57664;DHT22;43493;53.098;6.064;2023-06-24T02:46:46;17.20;99.90
57664;DHT22;43493;53.098;6.064;2023-06-24T02:49:13;17.20;99.90
57664;DHT22;43493;53.098;6.064;2023-06-24T02:51:41;17.20;99.90
57664;DHT22;43493;53.098;6.064;2023-06-24T02:54:07;17.10;99.90
57664;DHT22;43493;53.098;6.064;2023-06-24T02:56:34;17.10;99.90
57664;DHT22;43493;53.098;6.064;2023-06-24T02:59:00;17.10;99.90
57664;DHT22;43493;53.098;6.064;2023-06-24T03:01:26;17.00;99.90
57664;DHT22;43493;53.098;6.064;2023-06-24T03:03:56;17.00;99.90
57664;DHT22;43493;53.098;6.064;2023-06-24T03:06:22;17.00;99.90
57664;DHT22;43493;53.098;6.064;2023-06-24T03:08:49;17.00;99.90
57664;DHT22;43493;53.098;6.064;2023-06-24T03:11:16;16.90;99.90
57664;DHT22;43493;53.098;6.064;2023-06-24T03:13:42;16.90;99.90
57664;DHT22;43493;53.098;6.064;2023-06-24T03:16:09;16.90;99.90
57664;DHT22;43493;53.098;6.064;2023-06-24T03:18:46;16.90;99.90
57664;DHT22;43493;53.098;6.064;2023-06-24T03:21:12;16.90;99.90
57664;DHT22;43493;53.098;6.064;2023-06-24T03:23:37;16.90;99.90
57664;DHT22;43493;53.098;6.064;2023-06-24T03:26:05;16.90;99.90
57664;DHT22;43493;53.098;6.064;2023-06-24T03:28:32;16.90;99.90
57664;DHT22;43493;53.098;6.064;2023-06-24T03:30:58;16.90;99.90
57664;DHT22;43493;53.098;6.064;2023-06-24T03:33:24;16.90;99.90
57664;DHT22;43493;53.098;6.064;2023-06-24T03:35:52;16.90;99.90
57664;DHT22;43493;53.098;6.064;2023-06-24T03:38:18;16.90;99.90
57664;DHT22;43493;53.098;6.064;2023-06-24T03:40:44;16.90;99.90
57664;DHT22;43493;53.098;6.064;2023-06-24T03:43:10;16.90;99.90
57664;DHT22;43493;53.098;6.064;2023-06-24T03:45:36;16.90;99.90
57664;DHT22;43493;53.098;6.064;2023-06-24T03:48:01;16.90;99.90
57664;DHT22;43493;53.098;6.064;2023-06-24T03:50:27;16.90;99.90
57664;DHT22;43493;53.098;6.064;2023-06-24T03:52:53;16.90;99.90
57664;DHT22;43493;53.098;6.064;2023-06-24T03:55:18;17.00;99.90
57664;DHT22;43493;53.098;6.064;2023-06-24T03:57:44;17.00;99.90
57664;DHT22;43493;53.098;6.064;2023-06-24T04:00:10;17.00;99.90
57664;DHT22;43493;53.098;6.064;2023-06-24T04:02:43;16.90;99.90
57664;DHT22;43493;53.098;6.064;2023-06-24T04:05:09;16.90;99.90
57664;DHT22;43493;53.098;6.064;2023-06-24T04:07:35;16.90;99.90
57664;DHT22;43493;53.098;6.064;2023-06-24T04:10:02;17.00;99.90
57664;DHT22;43493;53.098;6.064;2023-06-24T04:12:29;17.00;99.90
57664;DHT22;43493;53.098;6.064;2023-06-24T04:14:55;17.10;99.90
57664;DHT22;43493;53.098;6.064;2023-06-24T04:17:21;17.10;99.90
57664;DHT22;43493;53.098;6.064;2023-06-24T04:19:46;17.20;99.90
57664;DHT22;43493;53.098;6.064;2023-06-24T04:22:12;17.30;99.90
57664;DHT22;43493;53.098;6.064;2023-06-24T04:24:38;17.30;99.90
57664;DHT22;43493;53.098;6.064;2023-06-24T04:27:05;17.40;99.90
57664;DHT22;43493;53.098;6.064;2023-06-24T04:29:31;17.40;99.90
57664;DHT22;43493;53.098;6.064;2023-06-24T04:31:56;17.50;99.90
57664;DHT22;43493;53.098;6.064;2023-06-24T04:34:22;17.50;99.90
57664;DHT22;43493;53.098;6.064;2023-06-24T04:36:48;17.50;99.90
57664;DHT22;43493;53.098;6.064;2023-06-24T04:39:13;17.60;99.90
57664;DHT22;43493;53.098;6.064;2023-06-24T04:41:39;17.60;99.90
57664;DHT22;43493;53.098;6.064;2023-06-24T04:44:05;17.70;99.90
57664;DHT22;43493;53.098;6.064;2023-06-24T04:46:31;17.80;99.90
57664;DHT22;43493;53.098;6.064;2023-06-24T04:48:58;17.90;99.90
57664;DHT22;43493;53.098;6.064;2023-06-24T04:51:24;18.00;99.90
57664;DHT22;43493;53.098;6.064;2023-06-24T04:53:49;18.10;99.90
57664;DHT22;43493;53.098;6.064;2023-06-24T04:56:15;18.20;99.90
57664;DHT22;43493;53.098;6.064;2023-06-24T04:58:41;18.30;99.90
57664;DHT22;43493;53.098;6.064;2023-06-24T05:01:06;18.40;99.90
57664;DHT22;43493;53.098;6.064;2023-06-24T05:03:32;18.50;99.90
57664;DHT22;43493;53.098;6.064;2023-06-24T05:05:58;18.60;99.90
57664;DHT22;43493;53.098;6.064;2023-06-24T05:08:24;18.80;99.90
57664;DHT22;43493;53.098;6.064;2023-06-24T05:10:50;18.90;99.90
57664;DHT22;43493;53.098;6.064;2023-06-24T05:13:15;19.00;99.90
57664;DHT22;43493;53.098;6.064;2023-06-24T05:15:41;19.10;99.90
57664;DHT22;43493;53.098;6.064;2023-06-24T05:18:07;19.20;99.90
57664;DHT22;43493;53.098;6.064;2023-06-24T05:20:32;19.40;99.90
57664;DHT22;43493;53.098;6.064;2023-06-24T05:22:58;19.50;99.90
57664;DHT22;43493;53.098;6.064;2023-06-24T05:25:24;19.70;99.90
57664;DHT22;43493;53.098;6.064;2023-06-24T05:27:50;19.80;99.90
57664;DHT22;43493;53.098;6.064;2023-06-24T05:30:15;19.90;99.90
57664;DHT22;43493;53.098;6.064;2023-06-24T05:32:41;20.10;99.90
57664;DHT22;43493;53.098;6.064;2023-06-24T05:35:07;20.20;99.90
57664;DHT22;43493;53.098;6.064;2023-06-24T05:37:34;20.40;99.90
57664;DHT22;43493;53.098;6.064;2023-06-24T05:40:00;20.50;99.90
57664;DHT22;43493;53.098;6.064;2023-06-24T05:42:27;20.60;99.90
57664;DHT22;43493;53.098;6.064;2023-06-24T05:44:53;20.70;99.90
57664;DHT22;43493;53.098;6.064;2023-06-24T05:47:19;21.00;99.90
57664;DHT22;43493;53.098;6.064;2023-06-24T05:49:44;21.20;99.90
57664;DHT22;43493;53.098;6.064;2023-06-24T05:52:11;21.70;99.90
57664;DHT22;43493;53.098;6.064;2023-06-24T05:54:37;22.80;99.90
57664;DHT22;43493;53.098;6.064;2023-06-24T05:57:03;24.00;99.90
57664;DHT22;43493;53.098;6.064;2023-06-24T05:59:32;25.30;99.90
57664;DHT22;43493;53.098;6.064;2023-06-24T06:01:58;26.50;99.90
57664;DHT22;43493;53.098;6.064;2023-06-24T06:04:23;27.40;99.90
57664;DHT22;43493;53.098;6.064;2023-06-24T06:06:49;28.30;99.90
57664;DHT22;43493;53.098;6.064;2023-06-24T06:09:15;29.10;94.10
57664;DHT22;43493;53.098;6.064;2023-06-24T06:11:41;29.70;91.90
57664;DHT22;43493;53.098;6.064;2023-06-24T06:14:07;29.60;81.20
57664;DHT22;43493;53.098;6.064;2023-06-24T06:16:33;28.80;78.60
57664;DHT22;43493;53.098;6.064;2023-06-24T06:18:58;28.10;81.60
57664;DHT22;43493;53.098;6.064;2023-06-24T06:21:24;27.40;85.70
57664;DHT22;43493;53.098;6.064;2023-06-24T06:23:50;26.80;90.70
57664;DHT22;43493;53.098;6.064;2023-06-24T06:26:17;26.20;93.20
57664;DHT22;43493;53.098;6.064;2023-06-24T06:28:43;25.80;95.00
57664;DHT22;43493;53.098;6.064;2023-06-24T06:31:09;25.30;96.40
57664;DHT22;43493;53.098;6.064;2023-06-24T06:33:35;24.90;97.90
57664;DHT22;43493;53.098;6.064;2023-06-24T06:36:00;24.60;99.50
57664;DHT22;43493;53.098;6.064;2023-06-24T06:38:26;24.30;99.90
57664;DHT22;43493;53.098;6.064;2023-06-24T06:40:52;24.10;99.90
57664;DHT22;43493;53.098;6.064;2023-06-24T06:43:18;24.00;99.90
57664;DHT22;43493;53.098;6.064;2023-06-24T06:45:44;23.90;99.90
57664;DHT22;43493;53.098;6.064;2023-06-24T06:48:09;23.90;99.90
57664;DHT22;43493;53.098;6.064;2023-06-24T06:50:35;23.90;99.90
57664;DHT22;43493;53.098;6.064;2023-06-24T06:53:01;24.00;99.90
57664;DHT22;43493;53.098;6.064;2023-06-24T06:55:27;24.00;99.90
57664;DHT22;43493;53.098;6.064;2023-06-24T06:57:53;24.10;99.90
57664;DHT22;43493;53.098;6.064;2023-06-24T07:00:19;24.10;99.90
57664;DHT22;43493;53.098;6.064;2023-06-24T07:02:44;24.10;99.90
57664;DHT22;43493;53.098;6.064;2023-06-24T07:05:10;24.10;99.90
57664;DHT22;43493;53.098;6.064;2023-06-24T07:07:37;24.10;99.90
57664;DHT22;43493;53.098;6.064;2023-06-24T07:10:05;24.10;99.90
57664;DHT22;43493;53.098;6.064;2023-06-24T07:12:31;24.20;99.90
57664;DHT22;43493;53.098;6.064;2023-06-24T07:14:57;24.30;99.90
57664;DHT22;43493;53.098;6.064;2023-06-24T07:17:23;24.30;99.90
57664;DHT22;43493;53.098;6.064;2023-06-24T07:19:50;24.30;99.90
57664;DHT22;43493;53.098;6.064;2023-06-24T07:22:16;24.20;99.90
57664;DHT22;43493;53.098;6.064;2023-06-24T07:24:42;24.30;99.90
57664;DHT22;43493;53.098;6.064;2023-06-24T07:27:08;24.30;99.90
57664;DHT22;43493;53.098;6.064;2023-06-24T07:29:37;24.30;99.90
57664;DHT22;43493;53.098;6.064;2023-06-24T07:32:03;24.30;99.90
57664;DHT22;43493;53.098;6.064;2023-06-24T07:34:29;24.20;99.90
57664;DHT22;43493;53.098;6.064;2023-06-24T07:36:56;24.20;99.90
57664;DHT22;43493;53.098;6.064;2023-06-24T07:39:22;24.10;99.90
57664;DHT22;43493;53.098;6.064;2023-06-24T07:41:48;24.10;99.90
57664;DHT22;43493;53.098;6.064;2023-06-24T07:44:14;24.10;99.90
57664;DHT22;43493;53.098;6.064;2023-06-24T07:46:40;24.00;99.90
57664;DHT22;43493;53.098;6.064;2023-06-24T07:49:06;24.00;99.90
57664;DHT22;43493;53.098;6.064;2023-06-24T07:51:31;24.10;99.90
57664;DHT22;43493;53.098;6.064;2023-06-24T07:53:57;24.10;99.90
57664;DHT22;43493;53.098;6.064;2023-06-24T07:56:23;24.10;99.90
57664;DHT22;43493;53.098;6.064;2023-06-24T07:58:49;24.00;99.90
57664;DHT22;43493;53.098;6.064;2023-06-24T08:01:14;24.00;99.90
57664;DHT22;43493;53.098;6.064;2023-06-24T08:03:40;24.10;99.90
57664;DHT22;43493;53.098;6.064;2023-06-24T08:06:06;24.10;99.90
57664;DHT22;43493;53.098;6.064;2023-06-24T08:08:32;24.10;99.90
57664;DHT22;43493;53.098;6.064;2023-06-24T08:11:04;24.30;99.90
57664;DHT22;43493;53.098;6.064;2023-06-24T08:13:29;24.30;99.90
57664;DHT22;43493;53.098;6.064;2023-06-24T08:15:55;24.50;99.90
57664;DHT22;43493;53.098;6.064;2023-06-24T08:18:21;24.60;99.90
57664;DHT22;43493;53.098;6.064;2023-06-24T08:20:47;24.80;99.90
57664;DHT22;43493;53.098;6.064;2023-06-24T08:23:13;25.00;99.90
57664;DHT22;43493;53.098;6.064;2023-06-24T08:25:39;25.10;99.90
57664;DHT22;43493;53.098;6.064;2023-06-24T08:28:05;25.40;99.90
57664;DHT22;43493;53.098;6.064;2023-06-24T08:30:34;25.60;99.90
57664;DHT22;43493;53.098;6.064;2023-06-24T08:33:00;25.80;99.90
57664;DHT22;43493;53.098;6.064;2023-06-24T08:35:27;26.00;99.90
57664;DHT22;43493;53.098;6.064;2023-06-24T08:37:52;26.30;99.90
57664;DHT22;43493;53.098;6.064;2023-06-24T08:40:18;26.50;99.90
57664;DHT22;43493;53.098;6.064;2023-06-24T08:42:53;27.00;99.90
57664;DHT22;43493;53.098;6.064;2023-06-24T08:45:20;27.60;98.90
57664;DHT22;43493;53.098;6.064;2023-06-24T08:47:47;27.90;96.50
57664;DHT22;43493;53.098;6.064;2023-06-24T08:50:13;28.10;95.00
57664;DHT22;43493;53.098;6.064;2023-06-24T08:52:42;28.60;94.60
57664;DHT22;43493;53.098;6.064;2023-06-24T08:55:13;29.20;91.40
57664;DHT22;43493;53.098;6.064;2023-06-24T08:57:43;29.50;89.40
57664;DHT22;43493;53.098;6.064;2023-06-24T09:00:09;29.60;87.10
57664;DHT22;43493;53.098;6.064;2023-06-24T09:02:39;29.50;82.90
57664;DHT22;43493;53.098;6.064;2023-06-24T09:05:06;29.50;79.90
57664;DHT22;43493;53.098;6.064;2023-06-24T09:07:32;29.50;76.50
57664;DHT22;43493;53.098;6.064;2023-06-24T09:09:57;29.40;76.50
57664;DHT22;43493;53.098;6.064;2023-06-24T09:12:25;29.40;75.20
57664;DHT22;43493;53.098;6.064;2023-06-24T09:14:51;29.30;76.60
57664;DHT22;43493;53.098;6.064;2023-06-24T09:17:18;29.20;78.40
57664;DHT22;43493;53.098;6.064;2023-06-24T09:19:48;29.20;77.70
57664;DHT22;43493;53.098;6.064;2023-06-24T09:22:15;29.10;76.10
57664;DHT22;43493;53.098;6.064;2023-06-24T09:24:46;29.00;75.10
57664;DHT22;43493;53.098;6.064;2023-06-24T09:27:14;28.90;75.90
57664;DHT22;43493;53.098;6.064;2023-06-24T09:29:41;28.90;75.90
57664;DHT22;43493;53.098;6.064;2023-06-24T09:32:07;29.00;74.10
57664;DHT22;43493;53.098;6.064;2023-06-24T09:34:34;28.90;73.00
57664;DHT22;43493;53.098;6.064;2023-06-24T09:37:00;28.90;72.20
57664;DHT22;43493;53.098;6.064;2023-06-24T09:39:27;28.80;70.60
57664;DHT22;43493;53.098;6.064;2023-06-24T09:41:57;28.80;71.60
57664;DHT22;43493;53.098;6.064;2023-06-24T09:44:23;28.60;70.40
57664;DHT22;43493;53.098;6.064;2023-06-24T09:46:49;28.60;70.40
57664;DHT22;43493;53.098;6.064;2023-06-24T09:49:15;28.50;70.60
57664;DHT22;43493;53.098;6.064;2023-06-24T09:51:44;28.40;71.10
57664;DHT22;43493;53.098;6.064;2023-06-24T09:54:12;28.40;72.40
57664;DHT22;43493;53.098;6.064;2023-06-24T09:56:45;28.30;73.10
57664;DHT22;43493;53.098;6.064;2023-06-24T09:59:13;28.30;72.10
57664;DHT22;43493;53.098;6.064;2023-06-24T10:01:40;28.20;71.20
57664;DHT22;43493;53.098;6.064;2023-06-24T10:04:08;28.20;73.60
57664;DHT22;43493;53.098;6.064;2023-06-24T10:06:34;28.20;73.60
57664;DHT22;43493;53.098;6.064;2023-06-24T10:09:04;28.20;75.20
57664;DHT22;43493;53.098;6.064;2023-06-24T10:11:30;28.20;71.00
57664;DHT22;43493;53.098;6.064;2023-06-24T10:13:56;28.10;67.10
57664;DHT22;43493;53.098;6.064;2023-06-24T10:16:22;27.90;66.00
57664;DHT22;43493;53.098;6.064;2023-06-24T10:18:48;27.70;66.20
57664;DHT22;43493;53.098;6.064;2023-06-24T10:21:15;27.60;66.50
57664;DHT22;43493;53.098;6.064;2023-06-24T10:26:28;27.60;66.10
57664;DHT22;43493;53.098;6.064;2023-06-24T10:37:21;27.40;65.20
57664;DHT22;43493;53.098;6.064;2023-06-24T10:39:53;27.40;67.90
57664;DHT22;43493;53.098;6.064;2023-06-24T10:42:44;27.40;68.30
57664;DHT22;43493;53.098;6.064;2023-06-24T10:45:13;27.40;68.70
57664;DHT22;43493;53.098;6.064;2023-06-24T10:47:41;27.30;69.20
57664;DHT22;43493;53.098;6.064;2023-06-24T10:50:12;27.20;68.90
57664;DHT22;43493;53.098;6.064;2023-06-24T10:52:39;27.20;69.60
57664;DHT22;43493;53.098;6.064;2023-06-24T10:55:06;27.30;71.10
57664;DHT22;43493;53.098;6.064;2023-06-24T10:57:32;27.40;70.90
57664;DHT22;43493;53.098;6.064;2023-06-24T10:59:58;27.40;71.30
57664;DHT22;43493;53.098;6.064;2023-06-24T11:02:26;27.40;71.60
57664;DHT22;43493;53.098;6.064;2023-06-24T11:04:57;27.40;72.20
57664;DHT22;43493;53.098;6.064;2023-06-24T11:07:25;27.30;72.30
57664;DHT22;43493;53.098;6.064;2023-06-24T11:09:56;27.40;72.50
57664;DHT22;43493;53.098;6.064;2023-06-24T11:12:30;27.40;69.00
57664;DHT22;43493;53.098;6.064;2023-06-24T11:15:00;27.40;68.50
57664;DHT22;43493;53.098;6.064;2023-06-24T11:17:27;27.40;68.90
57664;DHT22;43493;53.098;6.064;2023-06-24T11:19:54;27.30;69.20
57664;DHT22;43493;53.098;6.064;2023-06-24T11:22:20;27.40;70.40
57664;DHT22;43493;53.098;6.064;2023-06-24T11:24:46;27.40;71.10
57664;DHT22;43493;53.098;6.064;2023-06-24T11:27:11;27.40;71.50
57664;DHT22;43493;53.098;6.064;2023-06-24T11:29:38;27.30;71.90
57664;DHT22;43493;53.098;6.064;2023-06-24T11:32:07;27.20;72.80
57664;DHT22;43493;53.098;6.064;2023-06-24T11:34:33;27.30;71.80
57664;DHT22;43493;53.098;6.064;2023-06-24T11:37:08;27.30;71.40
57664;DHT22;43493;53.098;6.064;2023-06-24T11:39:34;27.30;73.00
57664;DHT22;43493;53.098;6.064;2023-06-24T11:42:00;27.40;73.70
57664;DHT22;43493;53.098;6.064;2023-06-24T11:44:26;27.40;74.70
57664;DHT22;43493;53.098;6.064;2023-06-24T11:46:52;27.40;74.80
57664;DHT22;43493;53.098;6.064;2023-06-24T11:49:18;27.50;74.00
57664;DHT22;43493;53.098;6.064;2023-06-24T11:51:49;27.50;71.20
57664;DHT22;43493;53.098;6.064;2023-06-24T11:54:17;27.50;71.20
57664;DHT22;43493;53.098;6.064;2023-06-24T11:56:44;27.50;71.00
57664;DHT22;43493;53.098;6.064;2023-06-24T11:59:25;27.70;71.20
57664;DHT22;43493;53.098;6.064;2023-06-24T12:01:54;27.80;70.20
57664;DHT22;43493;53.098;6.064;2023-06-24T12:04:20;27.70;69.70
57664;DHT22;43493;53.098;6.064;2023-06-24T12:06:47;27.80;71.00
57664;DHT22;43493;53.098;6.064;2023-06-24T12:09:12;27.80;71.70
57664;DHT22;43493;53.098;6.064;2023-06-24T12:11:38;27.90;72.10
57664;DHT22;43493;53.098;6.064;2023-06-24T12:14:05;27.90;72.20
57664;DHT22;43493;53.098;6.064;2023-06-24T12:16:31;27.80;71.80
57664;DHT22;43493;53.098;6.064;2023-06-24T12:18:56;27.70;72.30
57664;DHT22;43493;53.098;6.064;2023-06-24T12:21:22;27.70;72.60
57664;DHT22;43493;53.098;6.064;2023-06-24T12:23:48;27.70;71.90
57664;DHT22;43493;53.098;6.064;2023-06-24T12:26:14;27.70;71.50
57664;DHT22;43493;53.098;6.064;2023-06-24T12:28:39;27.70;71.00
57664;DHT22;43493;53.098;6.064;2023-06-24T12:31:05;27.70;70.70
57664;DHT22;43493;53.098;6.064;2023-06-24T12:33:31;27.70;71.50
57664;DHT22;43493;53.098;6.064;2023-06-24T12:35:58;27.80;71.00
57664;DHT22;43493;53.098;6.064;2023-06-24T12:38:24;27.80;70.40
57664;DHT22;43493;53.098;6.064;2023-06-24T12:40:49;27.90;70.00
57664;DHT22;43493;53.098;6.064;2023-06-24T12:43:15;27.80;69.20
57664;DHT22;43493;53.098;6.064;2023-06-24T12:45:41;27.80;69.60
57664;DHT22;43493;53.098;6.064;2023-06-24T12:48:10;27.80;69.70
57664;DHT22;43493;53.098;6.064;2023-06-24T12:50:37;27.80;69.80
57664;DHT22;43493;53.098;6.064;2023-06-24T12:53:02;27.80;70.80
57664;DHT22;43493;53.098;6.064;2023-06-24T12:55:29;27.80;72.10
57664;DHT22;43493;53.098;6.064;2023-06-24T12:57:55;27.80;73.60
57664;DHT22;43493;53.098;6.064;2023-06-24T13:00:23;27.80;74.70
57664;DHT22;43493;53.098;6.064;2023-06-24T13:02:50;27.80;74.30
57664;DHT22;43493;53.098;6.064;2023-06-24T13:05:17;27.80;74.40
57664;DHT22;43493;53.098;6.064;2023-06-24T13:07:43;27.90;75.40
57664;DHT22;43493;53.098;6.064;2023-06-24T13:10:10;27.80;75.00
57664;DHT22;43493;53.098;6.064;2023-06-24T13:12:36;27.80;75.30
57664;DHT22;43493;53.098;6.064;2023-06-24T13:15:06;27.70;75.00
57664;DHT22;43493;53.098;6.064;2023-06-24T13:17:32;27.60;75.70
57664;DHT22;43493;53.098;6.064;2023-06-24T13:19:58;27.60;76.90
57664;DHT22;43493;53.098;6.064;2023-06-24T13:22:24;27.70;77.30
57664;DHT22;43493;53.098;6.064;2023-06-24T13:24:49;27.80;77.10
57664;DHT22;43493;53.098;6.064;2023-06-24T13:27:16;27.90;75.50
57664;DHT22;43493;53.098;6.064;2023-06-24T13:29:42;28.10;72.70
57664;DHT22;43493;53.098;6.064;2023-06-24T13:32:08;28.10;70.40
57664;DHT22;43493;53.098;6.064;2023-06-24T13:34:34;28.10;69.00
57664;DHT22;43493;53.098;6.064;2023-06-24T13:37:00;28.00;69.30
57664;DHT22;43493;53.098;6.064;2023-06-24T13:39:25;28.00;68.50
57664;DHT22;43493;53.098;6.064;2023-06-24T13:41:52;28.00;66.90
57664;DHT22;43493;53.098;6.064;2023-06-24T13:44:18;27.90;66.40
57664;DHT22;43493;53.098;6.064;2023-06-24T13:46:43;27.80;66.30
57664;DHT22;43493;53.098;6.064;2023-06-24T13:49:10;27.70;65.60
57664;DHT22;43493;53.098;6.064;2023-06-24T13:51:36;27.60;65.00
57664;DHT22;43493;53.098;6.064;2023-06-24T13:54:03;27.70;64.60
57664;DHT22;43493;53.098;6.064;2023-06-24T13:56:29;27.60;63.80
57664;DHT22;43493;53.098;6.064;2023-06-24T13:58:55;27.50;64.00
57664;DHT22;43493;53.098;6.064;2023-06-24T14:01:22;27.50;65.10
57664;DHT22;43493;53.098;6.064;2023-06-24T14:03:48;27.40;64.50
57664;DHT22;43493;53.098;6.064;2023-06-24T14:06:16;27.40;64.20
57664;DHT22;43493;53.098;6.064;2023-06-24T14:08:48;27.40;65.20
57664;DHT22;43493;53.098;6.064;2023-06-24T14:11:33;27.40;64.90
57664;DHT22;43493;53.098;6.064;2023-06-24T14:14:04;27.40;63.80
57664;DHT22;43493;53.098;6.064;2023-06-24T14:16:48;27.40;64.70
57664;DHT22;43493;53.098;6.064;2023-06-24T14:19:50;27.40;64.00
57664;DHT22;43493;53.098;6.064;2023-06-24T14:22:20;27.40;64.00
57664;DHT22;43493;53.098;6.064;2023-06-24T14:25:08;27.30;62.90
57664;DHT22;43493;53.098;6.064;2023-06-24T14:27:40;27.20;63.30
57664;DHT22;43493;53.098;6.064;2023-06-24T14:30:33;27.20;62.70
57664;DHT22;43493;53.098;6.064;2023-06-24T14:33:01;27.20;64.10
57664;DHT22;43493;53.098;6.064;2023-06-24T14:35:27;27.20;63.20
57664;DHT22;43493;53.098;6.064;2023-06-24T14:38:05;27.20;63.60
57664;DHT22;43493;53.098;6.064;2023-06-24T14:40:36;27.20;64.10
57664;DHT22;43493;53.098;6.064;2023-06-24T14:43:02;27.30;63.80
57664;DHT22;43493;53.098;6.064;2023-06-24T14:45:34;27.20;62.80
57664;DHT22;43493;53.098;6.064;2023-06-24T14:48:08;27.20;63.20
57664;DHT22;43493;53.098;6.064;2023-06-24T14:50:45;27.20;62.80
57664;DHT22;43493;53.098;6.064;2023-06-24T14:53:24;27.20;62.80
57664;DHT22;43493;53.098;6.064;2023-06-24T14:56:15;27.30;63.20
57664;DHT22;43493;53.098;6.064;2023-06-24T14:58:52;27.20;63.10
57664;DHT22;43493;53.098;6.064;2023-06-24T15:01:25;27.20;62.20
57664;DHT22;43493;53.098;6.064;2023-06-24T15:04:14;27.10;62.40
57664;DHT22;43493;53.098;6.064;2023-06-24T15:06:40;27.10;62.30
57664;DHT22;43493;53.098;6.064;2023-06-24T15:09:07;27.10;62.70
57664;DHT22;43493;53.098;6.064;2023-06-24T15:11:38;27.20;63.10
57664;DHT22;43493;53.098;6.064;2023-06-24T15:14:08;27.20;63.30
57664;DHT22;43493;53.098;6.064;2023-06-24T15:16:34;27.20;63.40
57664;DHT22;43493;53.098;6.064;2023-06-24T15:19:05;27.30;63.70
57664;DHT22;43493;53.098;6.064;2023-06-24T15:21:40;27.30;64.20
57664;DHT22;43493;53.098;6.064;2023-06-24T15:24:09;27.30;65.30
57664;DHT22;43493;53.098;6.064;2023-06-24T15:26:48;27.40;65.30
57664;DHT22;43493;53.098;6.064;2023-06-24T15:29:33;27.40;65.70
57664;DHT22;43493;53.098;6.064;2023-06-24T15:32:11;27.40;66.00
57664;DHT22;43493;53.098;6.064;2023-06-24T15:34:49;27.50;65.70
57664;DHT22;43493;53.098;6.064;2023-06-24T15:37:26;27.50;66.10
57664;DHT22;43493;53.098;6.064;2023-06-24T15:40:01;27.50;65.40
57664;DHT22;43493;53.098;6.064;2023-06-24T15:42:35;27.40;65.00
57664;DHT22;43493;53.098;6.064;2023-06-24T15:45:08;27.40;65.60
57664;DHT22;43493;53.098;6.064;2023-06-24T15:47:42;27.40;65.90
57664;DHT22;43493;53.098;6.064;2023-06-24T15:50:15;27.40;65.80